createdAt,value
2018-02-13T00:00:50.899Z,-0.53
2018-02-13T00:03:21.995Z,-0.62
2018-02-13T00:05:52.859Z,-0.68
2018-02-13T00:08:23.860Z,-0.74
2018-02-13T00:10:55.276Z,-0.66
2018-02-13T00:13:26.061Z,-0.93
2018-02-13T00:15:57.284Z,-0.74
2018-02-13T00:18:28.045Z,-0.83
2018-02-13T00:20:58.816Z,-0.84
2018-02-13T00:23:29.587Z,-0.72
2018-02-13T00:26:01.000Z,-0.89
2018-02-13T00:28:31.752Z,-0.81
2018-02-13T00:31:03.225Z,-0.78
2018-02-13T00:33:36.270Z,-0.60
2018-02-13T00:36:07.092Z,-0.58
2018-02-13T00:38:38.136Z,-0.54
2018-02-13T00:41:09.360Z,-0.64
2018-02-13T00:43:40.276Z,-0.56
2018-02-13T00:46:11.921Z,-0.63
2018-02-13T00:48:43.178Z,-0.46
2018-02-13T00:51:14.049Z,-0.91
2018-02-13T00:53:44.920Z,-0.76
2018-02-13T00:56:15.777Z,-0.62
2018-02-13T00:58:46.612Z,-0.38
2018-02-13T01:01:17.724Z,-0.58
2018-02-13T01:03:48.534Z,-0.66
2018-02-13T01:06:19.304Z,-0.73
2018-02-13T01:08:50.762Z,-0.66
2018-02-13T01:11:22.081Z,-0.64
2018-02-13T01:13:52.898Z,-0.69
2018-02-13T01:16:23.656Z,-0.71
2018-02-13T01:18:54.797Z,-0.61
2018-02-13T01:21:25.952Z,-0.70
2018-02-13T01:23:57.500Z,-0.80
2018-02-13T01:26:29.366Z,-0.54
2018-02-13T01:29:00.436Z,-0.54
2018-02-13T01:31:32.220Z,-0.61
2018-02-13T01:34:03.827Z,-0.56
2018-02-13T01:36:35.320Z,-0.52
2018-02-13T01:39:07.108Z,-0.10
2018-02-13T01:41:38.556Z,-0.47
2018-02-13T01:44:09.996Z,-0.41
2018-02-13T01:46:41.876Z,-0.37
2018-02-13T01:49:12.672Z,-0.44
2018-02-13T01:51:43.581Z,-0.20
2018-02-13T01:54:15.483Z,-0.36
2018-02-13T01:56:46.868Z,-0.27
2018-02-13T01:59:18.207Z,-0.22
2018-02-13T02:01:50.072Z,-0.17
2018-02-13T02:04:21.782Z,-0.05
2018-02-13T02:06:52.900Z,-0.19
2018-02-13T02:09:24.484Z,0.03
2018-02-13T02:11:55.777Z,-0.13
2018-02-13T02:14:27.553Z,0.09
2018-02-13T02:16:58.952Z,-0.07
2018-02-13T02:19:30.925Z,-0.14
2018-02-13T02:22:02.719Z,-0.10
2018-02-13T02:24:34.872Z,0.21
2018-02-13T02:27:06.007Z,0.03
2018-02-13T02:29:37.825Z,0.20
2018-02-13T02:32:08.956Z,0.17
2018-02-13T02:34:40.806Z,0.25
2018-02-13T02:37:11.961Z,0.14
2018-02-13T02:39:43.418Z,0.24
2018-02-13T02:42:14.877Z,0.21
2018-02-13T02:44:45.796Z,0.26
2018-02-13T02:47:17.094Z,0.38
2018-02-13T02:49:48.607Z,0.37
2018-02-13T02:52:19.768Z,-0.05
2018-02-13T02:54:51.178Z,0.02
2018-02-13T02:57:22.523Z,0.22
2018-02-13T02:59:54.025Z,0.31
2018-02-13T03:02:25.655Z,0.47
2018-02-13T03:04:56.953Z,0.46
2018-02-13T03:07:28.418Z,0.30
2018-02-13T03:10:00.402Z,0.35
2018-02-13T03:12:32.101Z,0.64
2018-02-13T03:15:03.649Z,0.29
2018-02-13T03:17:35.508Z,0.41
2018-02-13T03:20:06.664Z,0.35
2018-02-13T03:22:37.917Z,0.47
2018-02-13T03:25:09.161Z,0.67
2018-02-13T03:27:40.324Z,0.48
2018-02-13T03:30:11.825Z,0.46
2018-02-13T03:32:43.792Z,0.21
2018-02-13T03:35:15.120Z,0.58
2018-02-13T03:37:46.632Z,0.65
2018-02-13T03:40:18.292Z,0.50
2018-02-13T03:42:49.574Z,0.52
2018-02-13T03:45:20.641Z,0.46
2018-02-13T03:47:52.161Z,0.67
2018-02-13T03:50:23.333Z,0.98
2018-02-13T03:52:54.686Z,0.69
2018-02-13T03:55:25.893Z,0.76
2018-02-13T03:57:57.249Z,0.51
2018-02-13T04:00:28.285Z,0.45
2018-02-13T04:03:00.045Z,0.51
2018-02-13T04:05:31.592Z,0.55
2018-02-13T04:08:02.720Z,0.67
2018-02-13T04:10:34.429Z,0.56
2018-02-13T04:13:05.742Z,0.58
2018-02-13T04:15:37.302Z,0.25
2018-02-13T04:18:08.756Z,0.10
2018-02-13T04:20:40.273Z,0.17
2018-02-13T04:23:11.437Z,0.30
2018-02-13T04:25:42.746Z,0.15
2018-02-13T04:28:14.236Z,0.05
2018-02-13T04:30:45.975Z,0.16
2018-02-13T04:33:17.460Z,0.49
2018-02-13T04:35:49.596Z,0.45
2018-02-13T04:38:21.601Z,0.52
2018-02-13T04:40:53.031Z,0.22
2018-02-13T04:43:24.425Z,0.24
2018-02-13T04:45:55.821Z,0.33
2018-02-13T04:48:27.266Z,-0.04
2018-02-13T04:50:58.816Z,0.22
2018-02-13T04:53:30.344Z,0.09
2018-02-13T04:56:02.105Z,0.26
2018-02-13T04:58:34.693Z,0.16
2018-02-13T05:01:05.860Z,0.08
2018-02-13T05:03:37.601Z,0.36
2018-02-13T05:06:09.185Z,0.14
2018-02-13T05:08:40.776Z,-0.01
2018-02-13T05:11:12.057Z,-0.19
2018-02-13T05:13:43.472Z,-0.41
2018-02-13T05:16:14.838Z,-0.06
2018-02-13T05:18:46.497Z,-0.32
2018-02-13T05:21:17.916Z,-0.38
2018-02-13T05:23:49.092Z,-0.38
2018-02-13T05:26:20.965Z,-0.33
2018-02-13T05:28:52.277Z,-0.41
2018-02-13T05:31:23.572Z,-0.42
2018-02-13T05:33:55.539Z,-0.45
2018-02-13T05:36:27.278Z,-0.57
2018-02-13T05:38:59.288Z,-0.54
2018-02-13T05:41:30.851Z,-0.49
2018-02-13T05:44:02.483Z,-0.65
2018-02-13T05:46:34.730Z,-0.54
2018-02-13T05:49:06.328Z,-0.68
2018-02-13T05:51:37.489Z,-0.61
2018-02-13T05:54:09.325Z,-0.69
2018-02-13T05:56:40.640Z,-0.70
2018-02-13T05:59:12.227Z,-0.70
2018-02-13T06:01:44.221Z,-0.68
2018-02-13T06:04:15.769Z,-0.78
2018-02-13T06:06:46.586Z,-0.79
2018-02-13T06:09:18.388Z,-0.61
2018-02-13T06:11:50.141Z,-0.77
2018-02-13T06:14:21.208Z,-0.81
2018-02-13T06:16:54.272Z,-0.79
2018-02-13T06:19:26.435Z,-0.76
2018-02-13T06:22:00.200Z,-0.71
2018-02-13T06:24:31.008Z,-0.60
2018-02-13T06:27:02.072Z,-0.82
2018-02-13T06:29:35.673Z,-0.72
2018-02-13T06:32:06.916Z,-0.82
2018-02-13T06:34:41.722Z,-0.64
2018-02-13T06:37:13.517Z,-0.52
2018-02-13T06:39:44.385Z,-0.64
2018-02-13T06:42:15.480Z,-0.90
2018-02-13T06:44:46.268Z,-0.93
2018-02-13T06:47:17.064Z,-0.92
2018-02-13T06:49:48.264Z,-0.99
2018-02-13T06:52:19.056Z,-1.07
2018-02-13T06:54:49.900Z,-0.93
2018-02-13T06:57:21.015Z,-1.07
2018-02-13T06:59:52.611Z,-1.16
2018-02-13T07:02:24.322Z,-1.09
2018-02-13T07:04:55.401Z,-1.00
2018-02-13T07:07:26.649Z,-0.98
2018-02-13T07:09:58.747Z,-0.93
2018-02-13T07:12:29.788Z,-1.05
2018-02-13T07:15:00.916Z,-0.92
2018-02-13T07:17:31.709Z,-1.06
2018-02-13T07:20:02.543Z,-0.88
2018-02-13T07:22:34.380Z,-1.04
2018-02-13T07:25:06.049Z,-0.99
2018-02-13T07:27:37.125Z,-1.04
2018-02-13T07:30:08.449Z,-1.02
2018-02-13T07:32:40.236Z,-0.99
2018-02-13T07:35:11.396Z,-0.98
2018-02-13T07:37:42.830Z,-0.99
2018-02-13T07:40:14.325Z,-0.96
2018-02-13T07:42:45.781Z,-0.86
2018-02-13T07:45:17.017Z,-0.79
2018-02-13T07:47:47.877Z,-0.88
2018-02-13T07:50:19.644Z,-0.82
2018-02-13T07:52:50.920Z,-0.78
2018-02-13T07:55:22.424Z,-0.78
2018-02-13T07:57:53.801Z,-0.77
2018-02-13T08:00:24.708Z,-0.52
2018-02-13T08:02:55.845Z,-0.58
2018-02-13T08:05:27.560Z,-0.46
2018-02-13T08:07:58.413Z,-0.41
2018-02-13T08:10:29.236Z,-0.31
2018-02-13T08:13:00.444Z,-0.29
2018-02-13T08:15:33.520Z,-0.20
2018-02-13T08:18:04.790Z,0.09
2018-02-13T08:20:35.950Z,0.33
2018-02-13T08:23:06.711Z,0.03
2018-02-13T08:25:37.745Z,0.02
2018-02-13T08:28:08.619Z,0.46
2018-02-13T08:30:39.450Z,0.30
2018-02-13T08:33:11.172Z,0.38
2018-02-13T08:35:42.369Z,0.47
2018-02-13T08:38:13.163Z,0.46
2018-02-13T08:40:44.661Z,0.86
2018-02-13T08:43:16.833Z,0.83
2018-02-13T08:45:47.656Z,0.83
2018-02-13T08:48:19.080Z,1.09
2018-02-13T08:50:50.713Z,1.00
2018-02-13T08:53:21.584Z,0.94
2018-02-13T08:55:52.841Z,0.99
2018-02-13T08:58:23.973Z,1.05
2018-02-13T09:00:54.813Z,1.19
2018-02-13T09:03:26.229Z,1.35
2018-02-13T09:05:57.040Z,1.39
2018-02-13T09:08:28.108Z,1.17
2018-02-13T09:10:58.992Z,1.24
2018-02-13T09:13:29.751Z,1.19
2018-02-13T09:16:00.540Z,1.25
2018-02-13T09:18:32.220Z,1.37
2018-02-13T09:21:02.961Z,1.33
2018-02-13T09:23:34.130Z,1.66
2018-02-13T09:26:05.133Z,1.79
2018-02-13T09:28:35.904Z,1.61
2018-02-13T09:31:07.568Z,1.76
2018-02-13T09:33:38.968Z,1.69
2018-02-13T09:36:10.165Z,1.73
2018-02-13T09:38:40.956Z,1.76
2018-02-13T09:41:12.140Z,1.85
2018-02-13T09:43:43.401Z,2.16
2018-02-13T09:46:15.005Z,2.08
2018-02-13T09:48:46.108Z,2.29
2018-02-13T09:51:17.478Z,2.23
2018-02-13T09:53:48.868Z,2.44
2018-02-13T09:56:20.458Z,2.33
2018-02-13T09:58:51.748Z,2.46
2018-02-13T10:01:22.629Z,2.43
2018-02-13T10:03:53.988Z,2.55
2018-02-13T10:06:25.134Z,2.70
2018-02-13T10:08:56.593Z,2.80
2018-02-13T10:11:27.420Z,3.09
2018-02-13T10:13:58.213Z,2.99
2018-02-13T10:16:29.874Z,2.98
2018-02-13T10:19:00.713Z,3.06
2018-02-13T10:21:31.772Z,3.10
2018-02-13T10:24:02.948Z,3.32
2018-02-13T10:26:34.533Z,3.31
2018-02-13T10:29:05.373Z,3.15
2018-02-13T10:31:37.329Z,3.44
2018-02-13T10:34:08.108Z,3.38
2018-02-13T10:36:39.920Z,3.45
2018-02-13T10:39:10.972Z,3.57
2018-02-13T10:41:41.758Z,3.70
2018-02-13T10:44:13.290Z,3.83
2018-02-13T10:46:44.785Z,3.90
2018-02-13T10:49:15.493Z,4.04
2018-02-13T10:51:46.761Z,4.32
2018-02-13T10:54:18.432Z,4.24
2018-02-13T10:56:49.734Z,4.42
2018-02-13T10:59:21.540Z,4.16
2018-02-13T11:01:56.444Z,4.57
2018-02-13T11:04:27.261Z,4.39
2018-02-13T11:06:58.318Z,4.46
2018-02-13T11:09:29.188Z,4.79
2018-02-13T11:12:00.065Z,4.85
2018-02-13T11:14:31.311Z,4.65
2018-02-13T11:17:02.082Z,4.52
2018-02-13T11:19:32.917Z,4.47
2018-02-13T11:22:04.870Z,4.43
2018-02-13T11:24:35.626Z,4.83
2018-02-13T11:27:06.766Z,4.70
2018-02-13T11:29:38.192Z,4.78
2018-02-13T11:32:09.056Z,4.80
2018-02-13T11:34:40.505Z,4.88
2018-02-13T11:37:11.786Z,4.87
2018-02-13T11:39:42.613Z,4.89
2018-02-13T11:42:13.380Z,5.12
2018-02-13T11:44:44.296Z,4.95
2018-02-13T11:47:15.433Z,5.37
2018-02-13T11:49:46.270Z,5.33
2018-02-13T11:52:17.031Z,5.51
2018-02-13T11:54:48.148Z,5.47
2018-02-13T11:57:19.016Z,5.21
2018-02-13T11:59:49.890Z,5.30
2018-02-13T12:02:21.004Z,5.22
2018-02-13T12:04:51.745Z,5.24
2018-02-13T12:07:22.526Z,5.41
2018-02-13T12:09:53.712Z,5.37
2018-02-13T12:12:24.520Z,5.52
2018-02-13T12:14:56.184Z,5.23
2018-02-13T12:17:27.052Z,5.53
2018-02-13T12:19:57.873Z,5.43
2018-02-13T12:22:29.041Z,5.69
2018-02-13T12:24:59.812Z,5.36
2018-02-13T12:27:31.208Z,5.70
2018-02-13T12:30:02.352Z,5.65
2018-02-13T12:32:34.049Z,5.20
2018-02-13T12:35:05.054Z,5.56
2018-02-13T12:37:36.224Z,5.81
2018-02-13T12:40:07.110Z,5.02
2018-02-13T12:42:39.195Z,5.21
2018-02-13T12:45:10.161Z,5.58
2018-02-13T12:47:41.504Z,5.88
2018-02-13T12:50:12.712Z,5.80
2018-02-13T12:52:43.724Z,6.20
2018-02-13T12:55:15.147Z,6.21
2018-02-13T12:57:46.528Z,5.96
2018-02-13T13:00:17.655Z,6.21
2018-02-13T13:02:49.797Z,6.41
2018-02-13T13:05:20.822Z,6.15
2018-02-13T13:07:52.529Z,6.18
2018-02-13T13:10:23.722Z,6.39
2018-02-13T13:12:54.534Z,5.70
2018-02-13T13:15:25.616Z,5.74
2018-02-13T13:17:56.440Z,5.45
2018-02-13T13:20:27.904Z,5.44
2018-02-13T13:22:59.662Z,5.44
2018-02-13T13:25:30.563Z,5.31
2018-02-13T13:28:01.753Z,5.24
2018-02-13T13:30:33.345Z,5.41
2018-02-13T13:33:04.324Z,5.41
2018-02-13T13:35:35.433Z,5.10
2018-02-13T13:38:06.257Z,5.26
2018-02-13T13:40:37.061Z,5.19
2018-02-13T13:43:08.167Z,5.02
2018-02-13T13:45:39.028Z,4.94
2018-02-13T13:48:09.805Z,4.91
2018-02-13T13:50:41.248Z,4.85
2018-02-13T13:53:12.107Z,4.83
2018-02-13T13:55:42.962Z,4.91
2018-02-13T13:58:14.017Z,4.75
2018-02-13T14:00:44.876Z,4.69
2018-02-13T14:03:15.960Z,4.63
2018-02-13T14:05:46.820Z,4.60
2018-02-13T14:08:17.584Z,4.45
2018-02-13T14:10:48.422Z,4.34
2018-02-13T14:13:19.230Z,4.37
2018-02-13T14:15:50.112Z,4.41
2018-02-13T14:18:21.185Z,4.37
2018-02-13T14:20:52.039Z,4.26
2018-02-13T14:23:22.829Z,4.32
2018-02-13T14:25:53.655Z,4.44
2018-02-13T14:28:24.468Z,4.36
2018-02-13T14:30:55.244Z,4.25
2018-02-13T14:33:26.321Z,4.17
2018-02-13T14:35:58.904Z,4.09
2018-02-13T14:38:29.718Z,4.12
2018-02-13T14:41:00.565Z,4.17
2018-02-13T14:43:31.349Z,4.03
2018-02-13T14:46:02.495Z,4.14
2018-02-13T14:48:33.273Z,3.99
2018-02-13T14:51:04.609Z,3.94
2018-02-13T14:53:35.438Z,4.03
2018-02-13T14:56:06.664Z,3.93
2018-02-13T14:58:37.512Z,3.82
2018-02-13T15:01:08.400Z,3.80
2018-02-13T15:03:39.209Z,3.76
2018-02-13T15:06:10.043Z,3.83
2018-02-13T15:08:40.984Z,3.70
2018-02-13T15:11:12.073Z,3.60
2018-02-13T15:13:43.476Z,3.62
2018-02-13T15:16:14.380Z,3.88
2018-02-13T15:18:45.408Z,3.53
2018-02-13T15:21:16.237Z,3.81
2018-02-13T15:23:47.025Z,3.57
2018-02-13T15:26:18.229Z,3.46
2018-02-13T15:28:49.314Z,3.56
2018-02-13T15:31:20.321Z,3.59
2018-02-13T15:33:51.153Z,3.69
2018-02-13T15:36:22.388Z,3.39
2018-02-13T15:38:53.287Z,3.45
2018-02-13T15:41:24.395Z,3.57
2018-02-13T15:43:55.755Z,3.61
2018-02-13T15:46:26.949Z,3.48
2018-02-13T15:48:58.049Z,3.49
2018-02-13T15:51:28.889Z,3.43
2018-02-13T15:53:59.729Z,3.62
2018-02-13T15:56:30.617Z,3.56
2018-02-13T15:59:01.768Z,3.33
2018-02-13T16:01:32.536Z,3.53
2018-02-13T16:04:03.408Z,3.28
2018-02-13T16:06:35.048Z,3.35
2018-02-13T16:09:06.456Z,3.19
2018-02-13T16:11:37.506Z,3.32
2018-02-13T16:14:08.323Z,3.50
2018-02-13T16:16:39.113Z,3.36
2018-02-13T16:19:10.209Z,3.57
2018-02-13T16:21:41.100Z,3.35
2018-02-13T16:24:12.400Z,3.27
2018-02-13T16:26:43.289Z,2.95
2018-02-13T16:29:14.153Z,2.79
2018-02-13T16:31:45.052Z,2.97
2018-02-13T16:34:16.213Z,3.19
2018-02-13T16:36:47.041Z,3.12
2018-02-13T16:39:17.917Z,3.01
2018-02-13T16:41:49.093Z,2.84
2018-02-13T16:44:19.953Z,2.88
2018-02-13T16:46:50.909Z,2.68
2018-02-13T16:49:21.708Z,2.91
2018-02-13T16:51:52.830Z,2.80
2018-02-13T16:54:24.709Z,2.61
2018-02-13T16:56:55.596Z,2.08
2018-02-13T16:59:26.357Z,2.01
2018-02-13T17:01:58.025Z,2.31
2018-02-13T17:04:28.797Z,2.18
2018-02-13T17:06:59.620Z,2.10
2018-02-13T17:09:30.776Z,2.26
2018-02-13T17:12:01.736Z,2.32
2018-02-13T17:14:33.183Z,2.09
2018-02-13T17:17:04.301Z,2.00
2018-02-13T17:19:35.157Z,2.05
2018-02-13T17:22:05.984Z,2.01
2018-02-13T17:24:37.133Z,1.88
2018-02-13T17:27:08.445Z,1.75
2018-02-13T17:29:39.276Z,1.36
2018-02-13T17:32:10.449Z,1.59
2018-02-13T17:34:41.312Z,1.54
2018-02-13T17:37:12.125Z,1.61
2018-02-13T17:39:43.238Z,1.61
2018-02-13T17:42:14.017Z,1.49
2018-02-13T17:44:44.802Z,1.68
2018-02-13T17:47:15.688Z,1.60
2018-02-13T17:49:46.548Z,1.68
2018-02-13T17:52:17.668Z,1.51
2018-02-13T17:54:48.564Z,1.37
2018-02-13T17:57:19.508Z,1.52
2018-02-13T17:59:50.535Z,1.43
2018-02-13T18:02:21.391Z,1.50
2018-02-13T18:04:52.310Z,1.37
2018-02-13T18:07:23.788Z,1.35
2018-02-13T18:09:54.648Z,1.45
2018-02-13T18:12:25.544Z,1.21
2018-02-13T18:14:56.627Z,1.05
2018-02-13T18:17:27.432Z,1.23
2018-02-13T18:19:58.318Z,0.70
2018-02-13T18:22:29.433Z,0.76
2018-02-13T18:25:00.352Z,1.03
2018-02-13T18:27:31.817Z,0.68
2018-02-13T18:30:02.852Z,0.83
2018-02-13T18:32:34.944Z,0.79
2018-02-13T18:35:06.193Z,0.39
2018-02-13T18:37:36.968Z,0.58
2018-02-13T18:40:07.803Z,0.87
2018-02-13T18:42:39.500Z,0.76
2018-02-13T18:45:10.246Z,0.61
2018-02-13T18:47:41.054Z,0.48
2018-02-13T18:50:12.458Z,0.14
2018-02-13T18:55:14.604Z,0.58
2018-02-13T18:57:46.430Z,0.77
2018-02-13T19:00:17.992Z,0.71
2018-02-13T19:02:49.465Z,0.55
2018-02-13T19:05:20.410Z,0.46
2018-02-13T19:07:51.274Z,0.45
2018-02-13T19:10:22.241Z,0.68
2018-02-13T19:12:53.085Z,0.71
2018-02-13T19:15:23.921Z,0.21
2018-02-13T19:17:55.393Z,0.38
2018-02-13T19:20:26.280Z,0.50
2018-02-13T19:22:57.121Z,0.28
2018-02-13T19:25:28.101Z,0.41
2018-02-13T19:27:59.119Z,0.39
2018-02-13T19:30:30.275Z,0.44
2018-02-13T19:33:01.424Z,0.32
2018-02-13T19:35:33.558Z,0.30
2018-02-13T19:38:05.441Z,0.13
2018-02-13T19:40:36.441Z,0.45
2018-02-13T19:43:07.520Z,0.10
2018-02-13T19:45:38.402Z,0.13
2018-02-13T19:48:10.165Z,0.02
2018-02-13T19:50:41.100Z,0.21
2018-02-13T19:53:12.201Z,0.08
2018-02-13T19:55:43.426Z,-0.12
2018-02-13T19:58:14.329Z,-0.25
2018-02-13T20:00:45.477Z,-0.06
2018-02-13T20:03:17.153Z,0.06
2018-02-13T20:05:48.118Z,-0.13
2018-02-13T20:08:18.916Z,-0.21
2018-02-13T20:10:50.280Z,-0.50
2018-02-13T20:13:21.149Z,-0.16
2018-02-13T20:15:53.185Z,-0.20
2018-02-13T20:18:25.017Z,-0.39
2018-02-13T20:20:56.005Z,-0.68
2018-02-13T20:23:27.399Z,-0.22
2018-02-13T20:25:58.377Z,-0.17
2018-02-13T20:28:29.235Z,-0.38
2018-02-13T20:31:01.016Z,-0.91
2018-02-13T20:33:31.862Z,-0.90
2018-02-13T20:36:02.877Z,-0.53
2018-02-13T20:38:33.737Z,-0.63
2018-02-13T20:41:04.929Z,-0.69
2018-02-13T20:43:35.816Z,-0.63
2018-02-13T20:46:06.747Z,-0.54
2018-02-13T20:48:37.630Z,-0.69
2018-02-13T20:51:08.447Z,-0.78
2018-02-13T20:53:39.700Z,-0.53
2018-02-13T20:56:10.839Z,-0.52
2018-02-13T20:58:41.805Z,-0.91
2018-02-13T21:01:12.774Z,-1.07
2018-02-13T21:03:43.939Z,-0.78
2018-02-13T21:06:14.993Z,-0.81
2018-02-13T21:08:46.117Z,-0.84
2018-02-13T21:11:16.977Z,-1.09
2018-02-13T21:13:48.161Z,-1.00
2018-02-13T21:16:19.596Z,-0.48
2018-02-13T21:18:50.353Z,-0.31
2018-02-13T21:21:21.528Z,-0.51
2018-02-13T21:23:52.361Z,-0.66
2018-02-13T21:26:23.136Z,-0.82
2018-02-13T21:28:54.230Z,-0.75
2018-02-13T21:31:25.129Z,-0.49
2018-02-13T21:33:55.987Z,-0.49
2018-02-13T21:36:27.053Z,-0.59
2018-02-13T21:38:58.055Z,-0.66
2018-02-13T21:41:29.156Z,-0.82
2018-02-13T21:43:59.931Z,-0.89
2018-02-13T21:46:30.990Z,-0.80
2018-02-13T21:49:01.884Z,-1.02
2018-02-13T21:51:32.725Z,-1.29
2018-02-13T21:54:03.912Z,-1.13
2018-02-13T21:56:34.749Z,-1.15
2018-02-13T21:59:05.652Z,-1.02
2018-02-13T22:01:36.557Z,-1.08
2018-02-13T22:04:07.420Z,-0.98
2018-02-13T22:06:38.284Z,-1.01
2018-02-13T22:09:09.422Z,-1.01
2018-02-13T22:11:40.465Z,-0.82
2018-02-13T22:14:11.322Z,-0.97
2018-02-13T22:16:42.205Z,-1.25
2018-02-13T22:19:13.195Z,-1.19
2018-02-13T22:21:44.496Z,-1.24
2018-02-13T22:24:15.733Z,-1.54
2018-02-13T22:26:46.513Z,-1.65
2018-02-13T22:29:17.645Z,-1.71
2018-02-13T22:31:48.511Z,-1.63
2018-02-13T22:34:19.450Z,-1.48
2018-02-13T22:36:50.804Z,-1.09
2018-02-13T22:39:21.703Z,-1.24
2018-02-13T22:41:52.588Z,-1.33
2018-02-13T22:44:23.913Z,-1.48
2018-02-13T22:46:54.841Z,-1.48
2018-02-13T22:49:25.637Z,-1.04
2018-02-13T22:51:56.795Z,-1.19
2018-02-13T22:54:27.751Z,-1.52
2018-02-13T22:56:58.544Z,-1.54
2018-02-13T22:59:29.797Z,-1.55
2018-02-13T23:02:00.649Z,-1.58
2018-02-13T23:04:31.458Z,-1.66
2018-02-13T23:07:02.398Z,-1.96
2018-02-13T23:09:33.232Z,-2.22
2018-02-13T23:12:04.010Z,-1.85
2018-02-13T23:14:35.141Z,-1.87
2018-02-13T23:17:06.034Z,-2.58
2018-02-13T23:19:36.883Z,-2.21
2018-02-13T23:22:07.912Z,-1.95
2018-02-13T23:24:38.759Z,-1.71
2018-02-13T23:27:09.572Z,-1.70
2018-02-13T23:29:41.164Z,-1.86
2018-02-13T23:32:12.805Z,-1.79
2018-02-13T23:34:43.573Z,-1.84
2018-02-13T23:37:14.433Z,-2.08
2018-02-13T23:39:45.317Z,-2.11
2018-02-13T23:42:16.190Z,-1.91
2018-02-13T23:44:46.994Z,-1.83
2018-02-13T23:47:18.636Z,-1.90
2018-02-13T23:49:50.189Z,-1.84
2018-02-13T23:52:21.711Z,-1.82
2018-02-13T23:54:52.944Z,-1.82
2018-02-13T23:57:23.776Z,-2.03
2018-02-13T23:59:55.041Z,-1.74
